createdAt,value
2018-06-15T00:00:20.211Z,3.10
2018-06-15T00:02:54.264Z,2.80
2018-06-15T00:05:23.334Z,3.17
2018-06-15T00:07:52.368Z,3.07
2018-06-15T00:10:21.544Z,2.90
2018-06-15T00:12:50.585Z,2.80
2018-06-15T00:15:19.647Z,3.03
2018-06-15T00:17:49.026Z,3.27
2018-06-15T00:20:17.739Z,2.50
2018-06-15T00:22:46.674Z,3.07
2018-06-15T00:25:15.640Z,3.00
2018-06-15T00:27:44.877Z,3.23
2018-06-15T00:30:13.912Z,3.63
2018-06-15T00:32:42.955Z,3.03
2018-06-15T00:35:11.664Z,3.30
2018-06-15T00:37:40.599Z,3.37
2018-06-15T00:40:09.662Z,3.73
2018-06-15T00:42:38.745Z,3.60
2018-06-15T00:45:08.103Z,3.37
2018-06-15T00:47:37.157Z,3.30
2018-06-15T00:50:05.882Z,3.40
2018-06-15T00:52:34.503Z,2.97
2018-06-15T00:55:03.167Z,3.63
2018-06-15T00:57:43.828Z,3.70
2018-06-15T01:00:13.199Z,4.23
2018-06-15T01:02:42.239Z,3.80
2018-06-15T01:05:11.448Z,3.67
2018-06-15T01:07:40.518Z,3.50
2018-06-15T01:10:09.575Z,2.90
2018-06-15T01:12:38.287Z,3.63
2018-06-15T01:15:07.719Z,2.90
2018-06-15T01:17:37.127Z,3.47
2018-06-15T01:20:06.191Z,3.50
2018-06-15T01:22:34.919Z,3.27
2018-06-15T01:25:03.891Z,3.53
2018-06-15T01:27:32.920Z,3.50
2018-06-15T01:30:02.005Z,3.73
2018-06-15T01:32:30.770Z,3.20
2018-06-15T01:34:59.745Z,3.23
2018-06-15T01:37:29.059Z,3.83
2018-06-15T01:40:04.410Z,3.70
2018-06-15T01:42:33.070Z,3.43
2018-06-15T01:45:02.024Z,2.93
2018-06-15T01:47:31.079Z,3.33
2018-06-15T01:50:00.116Z,3.20
2018-06-15T01:52:28.859Z,3.80
2018-06-15T01:54:57.839Z,3.27
2018-06-15T01:57:26.936Z,3.70
2018-06-15T01:59:55.775Z,4.13
2018-06-15T02:02:24.719Z,4.73
2018-06-15T02:04:53.795Z,3.53
2018-06-15T02:07:22.827Z,3.47
2018-06-15T02:09:52.497Z,4.10
2018-06-15T02:12:21.206Z,4.13
2018-06-15T02:14:50.043Z,3.90
2018-06-15T02:17:19.014Z,3.50
2018-06-15T02:19:48.064Z,3.80
2018-06-15T02:22:16.779Z,2.97
2018-06-15T02:24:45.732Z,3.37
2018-06-15T02:27:14.789Z,3.43
2018-06-15T02:29:43.808Z,3.03
2018-06-15T02:32:12.901Z,3.63
2018-06-15T02:34:41.967Z,3.60
2018-06-15T02:37:11.043Z,3.63
2018-06-15T02:39:40.098Z,4.20
2018-06-15T02:42:09.140Z,4.03
2018-06-15T02:44:38.205Z,4.10
2018-06-15T02:47:07.074Z,3.67
2018-06-15T02:49:36.031Z,3.30
2018-06-15T02:52:04.856Z,3.53
2018-06-15T02:54:33.521Z,3.90
2018-06-15T02:57:02.155Z,3.87
2018-06-15T02:59:30.787Z,3.53
2018-06-15T03:01:59.759Z,3.83
2018-06-15T03:04:28.815Z,3.70
2018-06-15T03:06:58.542Z,3.63
2018-06-15T03:09:27.575Z,3.87
2018-06-15T03:11:56.606Z,4.43
2018-06-15T03:14:25.643Z,3.83
2018-06-15T03:16:55.187Z,4.07
2018-06-15T03:19:24.260Z,4.20
2018-06-15T03:21:53.298Z,4.10
2018-06-15T03:24:22.347Z,3.47
2018-06-15T03:26:51.388Z,4.40
2018-06-15T03:29:20.182Z,4.03
2018-06-15T03:31:49.135Z,3.77
2018-06-15T03:34:17.856Z,3.77
2018-06-15T03:36:46.812Z,4.80
2018-06-15T03:39:15.851Z,4.00
2018-06-15T03:41:44.914Z,4.00
2018-06-15T03:44:13.890Z,3.63
2018-06-15T03:46:42.946Z,3.97
2018-06-15T03:49:11.978Z,3.70
2018-06-15T03:51:41.021Z,4.23
2018-06-15T03:54:09.736Z,3.73
2018-06-15T03:56:38.707Z,4.10
2018-06-15T03:59:07.760Z,3.97
2018-06-15T04:01:36.822Z,3.90
2018-06-15T04:04:06.211Z,3.90
2018-06-15T04:06:35.134Z,3.57
2018-06-15T04:09:06.888Z,3.80
2018-06-15T04:11:36.017Z,4.00
2018-06-15T04:14:05.176Z,4.23
2018-06-15T04:16:34.835Z,3.60
2018-06-15T04:19:03.900Z,5.20
2018-06-15T04:21:32.938Z,3.70
2018-06-15T04:24:01.673Z,3.73
2018-06-15T04:26:30.620Z,4.30
2018-06-15T04:28:59.351Z,3.67
2018-06-15T04:31:27.995Z,3.73
2018-06-15T04:33:57.067Z,3.90
2018-06-15T04:36:25.706Z,4.50
2018-06-15T04:38:54.669Z,4.33
2018-06-15T04:41:23.823Z,4.23
2018-06-15T04:43:53.211Z,4.03
2018-06-15T04:46:22.213Z,3.63
2018-06-15T04:48:51.419Z,4.23
2018-06-15T04:51:20.130Z,3.53
2018-06-15T04:53:48.768Z,3.63
2018-06-15T04:56:17.724Z,3.20
2018-06-15T04:58:46.451Z,3.53
2018-06-15T05:01:15.421Z,3.70
2018-06-15T05:03:44.457Z,3.40
2018-06-15T05:06:13.734Z,3.63
2018-06-15T05:08:43.387Z,3.50
2018-06-15T05:11:12.692Z,3.47
2018-06-15T05:13:41.749Z,3.50
2018-06-15T05:16:11.077Z,3.17
2018-06-15T05:18:39.903Z,3.57
2018-06-15T05:21:08.903Z,3.53
2018-06-15T05:23:37.962Z,3.03
2018-06-15T05:26:07.240Z,3.13
2018-06-15T05:28:36.875Z,2.53
2018-06-15T05:31:05.936Z,3.43
2018-06-15T05:33:35.029Z,2.93
2018-06-15T05:36:04.097Z,2.97
2018-06-15T05:38:33.459Z,3.27
2018-06-15T05:41:02.647Z,3.10
2018-06-15T05:43:31.811Z,3.83
2018-06-15T05:46:00.528Z,2.77
2018-06-15T05:48:29.178Z,2.93
2018-06-15T05:50:57.819Z,3.57
2018-06-15T05:53:26.787Z,3.37
2018-06-15T05:55:55.861Z,3.37
2018-06-15T05:58:24.932Z,3.17
2018-06-15T06:00:53.679Z,2.93
2018-06-15T06:03:22.656Z,3.20
2018-06-15T06:05:51.756Z,3.50
2018-06-15T06:08:20.918Z,2.80
2018-06-15T06:10:50.011Z,3.53
2018-06-15T06:13:19.255Z,3.30
2018-06-15T06:15:48.331Z,3.43
2018-06-15T06:18:17.075Z,2.70
2018-06-15T06:20:45.696Z,3.50
2018-06-15T06:23:14.350Z,3.20
2018-06-15T06:25:43.311Z,3.00
2018-06-15T06:28:12.044Z,3.07
2018-06-15T06:30:40.665Z,3.57
2018-06-15T06:33:09.287Z,3.33
2018-06-15T06:35:38.137Z,3.20
2018-06-15T06:38:07.296Z,3.27
2018-06-15T06:40:36.316Z,2.87
2018-06-15T06:43:05.161Z,2.83
2018-06-15T06:45:34.137Z,3.23
2018-06-15T06:48:03.195Z,3.17
2018-06-15T06:50:31.947Z,3.20
2018-06-15T06:53:00.542Z,3.50
2018-06-15T06:55:29.504Z,2.90
2018-06-15T06:57:58.215Z,3.20
2018-06-15T07:00:27.365Z,3.37
2018-06-15T07:02:57.982Z,2.80
2018-06-15T07:05:27.025Z,3.27
2018-06-15T07:07:56.075Z,3.20
2018-06-15T07:10:25.156Z,2.80
2018-06-15T07:12:53.875Z,3.13
2018-06-15T07:15:22.821Z,2.70
2018-06-15T07:17:51.569Z,3.20
2018-06-15T07:20:20.559Z,2.70
2018-06-15T07:22:49.604Z,3.10
2018-06-15T07:25:18.671Z,2.60
2018-06-15T07:27:47.767Z,3.00
2018-06-15T07:30:16.807Z,2.73
2018-06-15T07:32:45.848Z,3.30
2018-06-15T07:35:14.881Z,3.00
2018-06-15T07:37:44.223Z,4.30
2018-06-15T07:40:13.260Z,3.33
2018-06-15T07:42:41.983Z,2.87
2018-06-15T07:45:10.591Z,4.20
2018-06-15T07:47:39.571Z,4.57
2018-06-15T07:50:08.274Z,2.80
2018-06-15T07:52:37.231Z,3.30
2018-06-15T07:55:06.283Z,2.93
2018-06-15T07:57:35.365Z,3.40
2018-06-15T08:00:04.898Z,4.13
2018-06-15T08:02:33.587Z,3.20
2018-06-15T08:05:02.240Z,3.77
2018-06-15T08:07:30.867Z,2.80
2018-06-15T08:09:59.848Z,3.30
2018-06-15T08:12:28.588Z,2.53
2018-06-15T08:14:57.540Z,2.97
2018-06-15T08:17:26.619Z,3.37
2018-06-15T08:19:55.660Z,2.90
2018-06-15T08:22:24.720Z,3.10
2018-06-15T08:24:53.452Z,2.83
2018-06-15T08:27:22.444Z,2.57
2018-06-15T08:29:51.484Z,3.30
2018-06-15T08:32:20.531Z,2.93
2018-06-15T08:34:49.727Z,3.00
2018-06-15T08:37:19.261Z,3.10
2018-06-15T08:39:48.583Z,3.17
2018-06-15T08:42:18.417Z,3.40
2018-06-15T08:44:47.607Z,2.80
2018-06-15T08:47:16.797Z,3.13
2018-06-15T08:49:45.951Z,3.20
2018-06-15T08:52:15.385Z,2.80
2018-06-15T08:54:44.648Z,3.00
2018-06-15T08:57:13.705Z,3.40
2018-06-15T08:59:42.495Z,3.57
2018-06-15T09:02:11.144Z,3.40
2018-06-15T09:04:39.784Z,3.20
2018-06-15T09:07:08.762Z,2.90
2018-06-15T09:09:37.482Z,3.03
2018-06-15T09:12:06.533Z,3.10
2018-06-15T09:14:36.556Z,3.30
2018-06-15T09:17:05.440Z,3.30
2018-06-15T09:19:34.093Z,2.77
2018-06-15T09:22:02.756Z,3.00
2018-06-15T09:24:31.799Z,2.83
2018-06-15T09:27:00.756Z,3.00
2018-06-15T09:29:29.915Z,3.40
2018-06-15T09:31:58.955Z,3.87
2018-06-15T09:34:27.695Z,3.10
2018-06-15T09:36:56.352Z,2.93
2018-06-15T09:39:25.343Z,2.90
2018-06-15T09:41:54.063Z,3.47
2018-06-15T09:44:22.886Z,3.27
2018-06-15T09:46:51.527Z,2.67
2018-06-15T09:49:20.165Z,3.20
2018-06-15T09:51:48.803Z,3.50
2018-06-15T09:54:17.500Z,3.13
2018-06-15T09:56:46.378Z,2.87
2018-06-15T09:59:15.076Z,2.90
2018-06-15T10:01:43.694Z,3.27
2018-06-15T10:04:12.964Z,2.90
2018-06-15T10:06:42.005Z,3.80
2018-06-15T10:09:10.730Z,3.20
2018-06-15T10:11:39.715Z,3.00
2018-06-15T10:14:08.772Z,3.43
2018-06-15T10:16:37.868Z,3.50
2018-06-15T10:19:06.895Z,3.37
2018-06-15T10:21:35.651Z,3.40
2018-06-15T10:24:04.595Z,3.13
2018-06-15T10:26:33.327Z,3.20
2018-06-15T10:29:01.984Z,3.50
2018-06-15T10:31:30.634Z,3.23
2018-06-15T10:33:59.768Z,3.43
2018-06-15T10:36:28.597Z,3.70
2018-06-15T10:38:57.576Z,3.80
2018-06-15T10:41:26.319Z,3.37
2018-06-15T10:43:55.196Z,3.13
2018-06-15T10:46:23.856Z,3.63
2018-06-15T10:48:52.837Z,3.10
2018-06-15T10:51:21.944Z,3.97
2018-06-15T10:53:51.072Z,3.43
2018-06-15T10:56:19.783Z,3.43
2018-06-15T10:58:48.442Z,3.50
2018-06-15T11:01:17.234Z,3.23
2018-06-15T11:03:46.086Z,3.50
2018-06-15T11:06:15.118Z,3.83
2018-06-15T11:08:43.945Z,3.07
2018-06-15T11:11:13.164Z,3.67
2018-06-15T11:13:42.119Z,3.50
2018-06-15T11:16:10.824Z,3.40
2018-06-15T11:18:39.486Z,3.60
2018-06-15T11:21:08.436Z,3.27
2018-06-15T11:23:37.490Z,3.17
2018-06-15T11:26:06.287Z,3.90
2018-06-15T11:28:34.955Z,4.10
2018-06-15T11:31:03.945Z,3.57
2018-06-15T11:33:32.620Z,3.27
2018-06-15T11:36:01.617Z,3.40
2018-06-15T11:38:30.318Z,3.70
2018-06-15T11:40:59.350Z,3.73
2018-06-15T11:43:28.552Z,3.47
2018-06-15T11:45:57.653Z,3.90
2018-06-15T11:48:26.429Z,3.70
2018-06-15T11:50:55.418Z,3.87
2018-06-15T11:53:24.144Z,3.47
2018-06-15T11:55:53.117Z,3.60
2018-06-15T11:58:22.104Z,3.20
2018-06-15T12:00:50.719Z,3.87
2018-06-15T12:03:19.479Z,3.60
2018-06-15T12:05:48.440Z,3.60
2018-06-15T12:08:17.599Z,4.20
2018-06-15T12:10:46.692Z,3.93
2018-06-15T12:13:15.587Z,3.37
2018-06-15T12:15:44.234Z,4.00
2018-06-15T12:18:13.203Z,4.10
2018-06-15T12:20:41.923Z,4.00
2018-06-15T12:23:10.582Z,4.33
2018-06-15T12:25:39.250Z,4.70
2018-06-15T12:28:08.019Z,4.37
2018-06-15T12:30:36.655Z,4.60
2018-06-15T12:33:05.635Z,3.63
2018-06-15T12:35:34.794Z,4.53
2018-06-15T12:38:03.547Z,3.70
2018-06-15T12:40:32.225Z,4.87
2018-06-15T12:43:01.285Z,4.13
2018-06-15T12:45:30.309Z,3.70
2018-06-15T12:47:59.353Z,3.83
2018-06-15T12:50:28.095Z,3.90
2018-06-15T12:52:57.379Z,3.83
2018-06-15T12:55:26.085Z,3.67
2018-06-15T12:57:55.051Z,4.00
2018-06-15T13:00:24.157Z,4.37
2018-06-15T13:02:53.266Z,3.40
2018-06-15T13:05:22.563Z,3.67
2018-06-15T13:07:51.280Z,3.53
2018-06-15T13:10:20.278Z,3.57
2018-06-15T13:12:49.017Z,4.23
2018-06-15T13:15:17.655Z,3.37
2018-06-15T13:17:46.661Z,3.93
2018-06-15T13:20:15.707Z,3.23
2018-06-15T13:22:44.754Z,3.30
2018-06-15T13:25:13.788Z,3.20
2018-06-15T13:27:42.528Z,4.23
2018-06-15T13:30:11.165Z,4.00
2018-06-15T13:32:39.830Z,3.47
2018-06-15T13:35:08.504Z,3.90
2018-06-15T13:37:37.508Z,4.00
2018-06-15T13:40:06.255Z,3.73
2018-06-15T13:42:34.925Z,4.40
2018-06-15T13:45:04.277Z,4.33
2018-06-15T13:47:33.562Z,3.37
2018-06-15T13:50:02.719Z,4.20
2018-06-15T13:52:31.427Z,4.07
2018-06-15T13:55:00.519Z,4.17
2018-06-15T13:57:29.672Z,3.83
2018-06-15T13:59:58.742Z,4.00
2018-06-15T14:02:27.478Z,4.13
2018-06-15T14:04:56.149Z,3.90
2018-06-15T14:07:24.778Z,4.17
2018-06-15T14:09:54.229Z,4.30
2018-06-15T14:12:23.103Z,4.23
2018-06-15T14:14:51.810Z,4.13
2018-06-15T14:17:21.247Z,3.87
2018-06-15T14:19:50.356Z,4.53
2018-06-15T14:22:19.667Z,3.73
2018-06-15T14:24:48.704Z,3.10
2018-06-15T14:27:17.451Z,3.70
2018-06-15T14:29:46.116Z,3.67
2018-06-15T14:32:14.751Z,3.93
2018-06-15T14:34:43.777Z,3.57
2018-06-15T14:37:12.531Z,3.83
2018-06-15T14:39:41.199Z,4.13
2018-06-15T14:42:09.858Z,2.97
2018-06-15T14:44:38.798Z,3.50
2018-06-15T14:47:07.512Z,3.87
2018-06-15T14:49:36.481Z,3.27
2018-06-15T14:52:05.567Z,3.30
2018-06-15T14:54:34.666Z,3.07
2018-06-15T14:57:03.619Z,3.27
2018-06-15T14:59:32.373Z,3.67
2018-06-15T15:02:00.985Z,2.80
2018-06-15T15:04:29.996Z,2.77
2018-06-15T15:06:59.047Z,3.00
2018-06-15T15:09:27.785Z,2.83
2018-06-15T15:11:56.414Z,2.73
2018-06-15T15:14:25.051Z,2.50
2018-06-15T15:16:54.047Z,2.93
2018-06-15T15:19:22.726Z,3.27
2018-06-15T15:21:51.327Z,3.23
2018-06-15T15:24:20.315Z,2.80
2018-06-15T15:26:49.464Z,3.60
2018-06-15T15:29:18.073Z,2.60
2018-06-15T15:31:46.732Z,2.13
2018-06-15T15:34:15.725Z,2.60
2018-06-15T15:36:44.786Z,3.60
2018-06-15T15:39:13.531Z,2.37
2018-06-15T15:41:42.208Z,2.47
2018-06-15T15:44:10.830Z,2.70
2018-06-15T15:46:39.805Z,2.70
2018-06-15T15:49:08.518Z,3.30
2018-06-15T15:51:37.159Z,3.03
2018-06-15T15:54:05.810Z,2.70
2018-06-15T15:56:34.436Z,2.93
2018-06-15T15:59:03.153Z,3.33
2018-06-15T16:01:31.810Z,2.80
2018-06-15T16:04:00.466Z,3.00
2018-06-15T16:06:29.126Z,3.00
2018-06-15T16:08:58.228Z,3.20
2018-06-15T16:11:26.879Z,3.33
2018-06-15T16:13:55.525Z,3.17
2018-06-15T16:16:24.492Z,3.57
2018-06-15T16:18:53.225Z,2.57
2018-06-15T16:21:21.891Z,3.10
2018-06-15T16:23:50.540Z,3.07
2018-06-15T16:26:19.197Z,3.50
2018-06-15T16:28:48.195Z,3.33
2018-06-15T16:31:16.946Z,3.33
2018-06-15T16:33:45.914Z,3.43
2018-06-15T16:36:14.716Z,3.33
2018-06-15T16:38:43.358Z,3.63
2018-06-15T16:41:12.390Z,4.07
2018-06-15T16:43:41.386Z,3.87
2018-06-15T16:46:10.178Z,2.93
2018-06-15T16:48:38.922Z,3.33
2018-06-15T16:51:07.668Z,3.53
2018-06-15T16:53:36.395Z,3.10
2018-06-15T16:56:05.097Z,3.27
2018-06-15T16:58:33.892Z,3.50
2018-06-15T17:01:02.610Z,3.30
2018-06-15T17:03:31.279Z,3.47
2018-06-15T17:05:59.928Z,3.23
2018-06-15T17:08:28.597Z,3.33
2018-06-15T17:10:57.215Z,3.30
2018-06-15T17:13:26.145Z,3.50
2018-06-15T17:15:54.783Z,3.50
2018-06-15T17:18:23.465Z,3.17
2018-06-15T17:20:52.503Z,2.87
2018-06-15T17:23:21.330Z,3.60
2018-06-15T17:25:50.027Z,4.03
2018-06-15T17:28:18.776Z,3.10
2018-06-15T17:30:47.465Z,3.57
2018-06-15T17:33:16.191Z,4.50
2018-06-15T17:35:44.952Z,4.23
2018-06-15T17:38:14.073Z,3.23
2018-06-15T17:40:43.121Z,3.90
2018-06-15T17:43:11.899Z,3.33
2018-06-15T17:45:40.607Z,3.53
2018-06-15T17:48:09.292Z,3.13
2018-06-15T17:50:38.012Z,3.07
2018-06-15T17:53:07.510Z,3.37
2018-06-15T17:55:36.420Z,3.63
2018-06-15T18:00:40.193Z,3.27
2018-06-15T18:03:09.051Z,3.70
2018-06-15T18:05:38.103Z,3.10
2018-06-15T18:08:06.792Z,3.60
2018-06-15T18:10:35.889Z,3.63
2018-06-15T18:13:04.529Z,3.73
2018-06-15T18:15:33.209Z,3.97
2018-06-15T18:18:01.930Z,3.80
2018-06-15T18:20:30.904Z,4.60
2018-06-15T18:22:59.642Z,4.33
2018-06-15T18:25:28.715Z,4.00
2018-06-15T18:27:57.537Z,3.93
2018-06-15T18:30:26.342Z,4.07
2018-06-15T18:32:55.126Z,3.83
2018-06-15T18:35:23.845Z,3.90
2018-06-15T18:37:52.691Z,4.33
2018-06-15T18:40:21.615Z,4.97
2018-06-15T18:42:50.497Z,4.60
2018-06-15T18:45:19.915Z,5.07
2018-06-15T18:47:48.682Z,3.93
2018-06-15T18:50:17.420Z,4.27
2018-06-15T18:52:46.111Z,3.50
2018-06-15T18:55:14.751Z,4.30
2018-06-15T18:57:43.467Z,4.67
2018-06-15T19:00:12.528Z,4.00
2018-06-15T19:02:41.378Z,3.30
2018-06-15T19:05:10.149Z,3.67
2018-06-15T19:07:38.803Z,3.97
2018-06-15T19:10:07.463Z,4.50
2018-06-15T19:12:36.082Z,4.60
2018-06-15T19:15:05.124Z,4.20
2018-06-15T19:17:33.808Z,4.20
2018-06-15T19:20:02.836Z,3.67
2018-06-15T19:22:31.601Z,4.63
2018-06-15T19:25:00.617Z,3.87
2018-06-15T19:27:29.382Z,4.60
2018-06-15T19:29:58.039Z,3.67
2018-06-15T19:32:27.078Z,4.23
2018-06-15T19:34:56.132Z,3.83
2018-06-15T19:37:24.787Z,4.03
2018-06-15T19:39:53.784Z,3.90
2018-06-15T19:42:22.774Z,4.10
2018-06-15T19:44:51.536Z,3.87
2018-06-15T19:47:20.512Z,4.20
2018-06-15T19:49:49.322Z,4.77
2018-06-15T19:52:17.945Z,4.73
2018-06-15T19:54:46.974Z,5.27
2018-06-15T19:57:16.038Z,5.13
2018-06-15T19:59:45.116Z,5.13
2018-06-15T20:02:13.835Z,5.57
2018-06-15T20:04:42.804Z,4.97
2018-06-15T20:07:11.578Z,5.07
2018-06-15T20:09:40.216Z,5.60
2018-06-15T20:12:08.873Z,4.67
2018-06-15T20:14:37.869Z,5.23
2018-06-15T20:17:06.520Z,5.70
2018-06-15T20:19:35.151Z,6.00
2018-06-15T20:22:03.929Z,7.93
2018-06-15T20:24:32.914Z,5.33
2018-06-15T20:27:01.671Z,5.67
2018-06-15T20:29:30.316Z,5.80
2018-06-15T20:31:59.174Z,5.97
2018-06-15T20:34:28.107Z,6.10
2018-06-15T20:36:56.862Z,5.90
2018-06-15T20:39:25.482Z,6.10
2018-06-15T20:41:54.194Z,5.83
2018-06-15T20:44:22.997Z,5.80
2018-06-15T20:46:52.013Z,6.63
2018-06-15T20:49:20.764Z,6.20
2018-06-15T20:51:49.406Z,6.03
2018-06-15T20:54:18.069Z,5.83
2018-06-15T20:56:46.751Z,6.37
2018-06-15T20:59:15.490Z,6.73
2018-06-15T21:01:44.452Z,6.20
2018-06-15T21:04:13.183Z,6.10
2018-06-15T21:06:42.170Z,6.77
2018-06-15T21:09:11.145Z,6.47
2018-06-15T21:11:39.782Z,6.60
2018-06-15T21:14:08.416Z,7.30
2018-06-15T21:16:37.203Z,6.63
2018-06-15T21:19:06.236Z,6.73
2018-06-15T21:21:34.961Z,6.20
2018-06-15T21:24:03.943Z,6.60
2018-06-15T21:26:32.683Z,6.30
2018-06-15T21:29:01.306Z,6.63
2018-06-15T21:31:29.971Z,7.33
2018-06-15T21:33:58.669Z,6.60
2018-06-15T21:36:27.639Z,6.10
2018-06-15T21:38:56.713Z,7.10
2018-06-15T21:41:25.787Z,6.87
2018-06-15T21:43:54.548Z,7.37
2018-06-15T21:46:23.203Z,5.80
2018-06-15T21:48:51.884Z,6.47
2018-06-15T21:51:20.947Z,7.37
2018-06-15T21:53:50.033Z,6.50
2018-06-15T21:56:19.087Z,6.60
2018-06-15T21:58:47.837Z,6.80
2018-06-15T22:01:16.850Z,6.63
2018-06-15T22:03:45.585Z,6.67
2018-06-15T22:06:14.562Z,7.03
2018-06-15T22:08:43.397Z,6.50
2018-06-15T22:11:12.389Z,6.70
2018-06-15T22:13:41.454Z,7.00
2018-06-15T22:16:10.524Z,8.47
2018-06-15T22:18:39.621Z,6.23
2018-06-15T22:21:08.355Z,6.53
2018-06-15T22:23:37.467Z,7.43
2018-06-15T22:26:06.619Z,7.90
2018-06-15T22:28:35.291Z,7.77
2018-06-15T22:31:04.268Z,7.40
2018-06-15T22:33:33.296Z,7.47
2018-06-15T22:36:02.597Z,7.50
2018-06-15T22:38:31.863Z,7.73
2018-06-15T22:41:00.943Z,7.47
2018-06-15T22:43:30.007Z,7.70
2018-06-15T22:45:59.080Z,8.00
2018-06-15T22:48:28.159Z,7.33
2018-06-15T22:50:57.243Z,7.57
2018-06-15T22:53:26.835Z,7.37
2018-06-15T22:55:56.123Z,8.67
2018-06-15T22:58:25.202Z,8.13
2018-06-15T23:00:53.942Z,7.93
2018-06-15T23:03:22.912Z,8.67
2018-06-15T23:05:52.301Z,8.20
2018-06-15T23:08:21.030Z,7.70
2018-06-15T23:10:49.791Z,7.07
2018-06-15T23:13:18.804Z,8.20
2018-06-15T23:15:48.108Z,7.80
2018-06-15T23:18:17.180Z,7.57
2018-06-15T23:20:46.447Z,7.90
2018-06-15T23:23:15.529Z,8.13
2018-06-15T23:25:44.925Z,8.13
2018-06-15T23:28:13.891Z,7.77
2018-06-15T23:30:42.525Z,8.43
2018-06-15T23:33:11.495Z,8.90
2018-06-15T23:35:40.230Z,8.13
2018-06-15T23:38:09.375Z,7.67
2018-06-15T23:40:38.421Z,7.07
2018-06-15T23:43:07.528Z,7.13
2018-06-15T23:45:36.567Z,7.07
2018-06-15T23:48:05.699Z,7.80
2018-06-15T23:50:34.786Z,9.10
2018-06-15T23:53:04.149Z,7.93
2018-06-15T23:55:33.224Z,9.07
2018-06-15T23:58:02.296Z,8.20
